createdAt,value
2022-08-22T05:32:00.986Z,99.90
2022-08-22T05:35:05.778Z,99.90
2022-08-22T05:38:14.174Z,99.90
2022-08-22T05:41:23.784Z,99.90
2022-08-22T05:44:30.355Z,99.90
2022-08-22T05:47:42.949Z,99.90
2022-08-22T05:50:51.250Z,99.90
2022-08-22T05:54:06.878Z,99.90
2022-08-22T05:57:21.035Z,99.90
2022-08-22T06:00:27.221Z,97.90
2022-08-22T06:03:36.960Z,95.90
2022-08-22T06:06:49.210Z,95.50
2022-08-22T06:10:23.459Z,94.00
2022-08-22T06:50:35.176Z,89.70
2022-08-22T06:53:47.726Z,90.60
2022-08-22T06:56:52.488Z,90.30
2022-08-22T06:59:56.951Z,91.50
2022-08-22T07:03:02.181Z,83.80
2022-08-22T07:06:04.395Z,85.40
2022-08-22T07:09:07.325Z,87.40
2022-08-22T07:12:16.568Z,80.40
2022-08-22T07:15:32.559Z,79.00
2022-08-22T07:18:34.763Z,78.70
2022-08-22T07:21:47.332Z,76.00
2022-08-22T07:24:55.240Z,73.70
2022-08-22T07:28:19.506Z,75.70
2022-08-22T07:31:33.357Z,74.90
2022-08-22T07:35:11.814Z,75.40
2022-08-22T07:38:42.973Z,73.60
2022-08-22T07:41:58.085Z,68.90
2022-08-22T07:45:06.910Z,68.20
2022-08-22T07:48:26.284Z,65.70
2022-08-22T07:51:39.307Z,67.10
2022-08-22T07:54:53.405Z,65.60
2022-08-22T07:58:02.047Z,64.40
2022-08-22T08:01:10.364Z,62.30
2022-08-22T08:04:17.589Z,58.20
2022-08-22T08:07:24.365Z,56.10
2022-08-22T08:10:32.916Z,56.40
2022-08-22T08:13:38.046Z,57.70
2022-08-22T08:16:50.416Z,57.50
2022-08-22T08:19:55.029Z,59.10
2022-08-22T08:22:59.304Z,58.20
2022-08-22T08:26:21.338Z,56.20
2022-08-22T08:29:24.228Z,55.70
2022-08-22T08:32:31.903Z,55.30
2022-08-22T08:36:01.821Z,54.10
2022-08-22T08:39:23.734Z,53.10
2022-08-22T08:43:01.984Z,53.00
2022-08-22T08:46:34.904Z,54.90
2022-08-22T08:50:09.492Z,53.10
2022-08-22T08:53:43.229Z,52.70
2022-08-22T08:56:56.821Z,53.10
2022-08-22T09:00:14.499Z,53.30
2022-08-22T09:03:48.189Z,53.10
2022-08-22T09:07:33.095Z,52.70
2022-08-22T09:11:16.765Z,53.20
2022-08-22T09:15:11.962Z,53.10
2022-08-22T09:18:37.088Z,54.00
2022-08-22T09:22:18.904Z,53.20
2022-08-22T09:25:41.741Z,53.20
2022-08-22T09:29:23.319Z,50.70
2022-08-22T09:32:48.567Z,50.00
2022-08-22T09:35:56.340Z,50.10
2022-08-22T09:39:07.721Z,49.90
2022-08-22T09:42:26.464Z,51.40
2022-08-22T09:45:42.905Z,52.30
2022-08-22T09:49:05.553Z,50.10
2022-08-22T09:52:37.002Z,52.20
2022-08-22T09:56:18.775Z,51.50
2022-08-22T09:59:33.700Z,48.70
2022-08-22T10:02:59.039Z,51.70
2022-08-22T10:06:14.204Z,51.30
2022-08-22T10:09:31.526Z,49.90
2022-08-22T10:12:46.538Z,49.60
2022-08-22T10:16:00.231Z,50.40
2022-08-22T10:19:40.511Z,49.90
2022-08-22T10:22:56.011Z,50.40
2022-08-22T10:26:26.859Z,49.10
2022-08-22T10:29:56.761Z,49.30
2022-08-22T10:33:14.371Z,49.60
2022-08-22T10:36:23.642Z,49.60
2022-08-22T10:39:44.287Z,49.40
2022-08-22T10:42:57.606Z,48.60
2022-08-22T10:46:06.674Z,49.40
2022-08-22T10:49:19.520Z,48.80
2022-08-22T10:52:35.155Z,48.60
2022-08-22T10:55:40.279Z,49.30
2022-08-22T10:58:55.987Z,50.00
2022-08-22T11:02:12.822Z,49.90
2022-08-22T11:05:25.716Z,51.00
2022-08-22T11:08:58.404Z,48.90
2022-08-22T11:12:12.735Z,48.00
2022-08-22T11:15:24.138Z,48.20
2022-08-22T11:19:15.031Z,48.80
2022-08-22T11:22:44.717Z,46.90
2022-08-22T11:26:33.825Z,45.20
2022-08-22T11:30:18.395Z,45.50
2022-08-22T11:33:46.896Z,46.60
2022-08-22T11:36:56.496Z,46.70
2022-08-22T11:40:19.327Z,49.40
2022-08-22T11:43:45.314Z,51.30
2022-08-22T11:46:52.641Z,52.00
2022-08-22T11:50:13.787Z,51.50
2022-08-22T11:53:35.076Z,51.60
2022-08-22T11:56:48.783Z,51.40
2022-08-22T12:00:20.813Z,51.60
2022-08-22T12:03:46.741Z,52.10
2022-08-22T12:07:12.039Z,52.40
2022-08-22T12:10:17.922Z,51.40
2022-08-22T12:13:49.188Z,51.00
2022-08-22T12:17:06.628Z,52.10
2022-08-22T12:20:52.226Z,52.30
2022-08-22T12:24:20.785Z,52.60
2022-08-22T12:27:50.612Z,52.70
2022-08-22T12:31:22.851Z,51.60
2022-08-22T12:34:38.716Z,51.40
2022-08-22T12:38:28.798Z,52.30
2022-08-22T12:42:01.485Z,52.10
2022-08-22T12:45:41.075Z,52.90
2022-08-22T12:49:18.982Z,51.20
2022-08-22T12:52:55.916Z,51.80
2022-08-22T12:56:37.480Z,53.20
2022-08-22T12:59:48.104Z,53.20
2022-08-22T13:02:53.800Z,53.00
2022-08-22T13:06:00.222Z,52.90
2022-08-22T13:09:11.595Z,52.90
2022-08-22T13:12:35.143Z,51.90
2022-08-22T13:15:46.044Z,51.80
2022-08-22T13:19:07.811Z,53.00
2022-08-22T13:22:23.236Z,54.20
2022-08-22T13:25:30.510Z,54.50
2022-08-22T13:28:41.072Z,54.00
2022-08-22T13:31:44.458Z,54.10
2022-08-22T13:34:52.324Z,53.70
2022-08-22T13:38:03.736Z,54.70
2022-08-22T13:41:07.768Z,53.90
2022-08-22T13:44:13.363Z,54.50
2022-08-22T13:47:19.968Z,53.80
2022-08-22T13:50:23.417Z,54.70
2022-08-22T13:53:40.962Z,54.50
2022-08-22T13:57:12.144Z,54.70
2022-08-22T14:00:25.386Z,55.40
2022-08-22T14:03:48.750Z,54.90
2022-08-22T14:06:58.931Z,53.80
2022-08-22T14:10:06.596Z,54.50
2022-08-22T14:13:46.824Z,55.40
2022-08-22T14:16:53.270Z,55.30
2022-08-22T14:20:02.120Z,55.00
2022-08-22T14:23:13.750Z,53.80
2022-08-22T14:26:32.835Z,53.50
2022-08-22T14:29:50.821Z,53.30
2022-08-22T14:33:06.845Z,52.70
2022-08-22T14:36:17.363Z,53.00
2022-08-22T14:39:28.653Z,52.70
2022-08-22T14:42:44.328Z,53.00
2022-08-22T14:45:57.249Z,51.90
2022-08-22T14:49:24.773Z,51.90
2022-08-22T14:52:32.106Z,52.10
2022-08-22T14:55:35.116Z,52.80
2022-08-22T14:59:04.491Z,52.40
2022-08-22T15:02:10.742Z,51.80
2022-08-22T15:05:18.023Z,52.30
2022-08-22T15:08:27.442Z,52.40
2022-08-22T15:11:32.207Z,52.00
2022-08-22T15:14:37.222Z,51.30
2022-08-22T15:17:46.401Z,51.10
2022-08-22T15:21:03.289Z,51.80
2022-08-22T15:24:14.635Z,52.40
2022-08-22T15:27:20.060Z,53.30
2022-08-22T15:30:44.363Z,54.10
2022-08-22T15:33:47.392Z,54.20
2022-08-22T15:37:24.309Z,54.40
2022-08-22T15:40:44.198Z,54.80
2022-08-22T15:43:51.775Z,54.50
2022-08-22T15:46:53.647Z,54.50
2022-08-22T15:50:00.159Z,54.60
2022-08-22T15:53:13.822Z,55.00
2022-08-22T15:56:16.026Z,55.30
2022-08-22T15:59:31.291Z,55.40
